Terminal Aerodrome Forecast
Issued by NWS Austin/San Antonio, TX

Home | Current Version | Previous Version | Text Only | Print | Product List | Glossary On
Versions: 1 2 3 4 5 6 7 8 9 10 11 12 13 14 15 16 17
000
FTUS44 KEWX 172300 CCA
TAFSAT
TAF COR
KSAT 172350Z 1800/1906 08009KT 5SM -DZ BR SCT009 BKN015 OVC023
      TEMPO 1800/1804 2SM -RADZ BR OVC007
     FM180600 03003KT 3SM -DZ BR OVC004
     FM181200 04006KT 1SM -DZ BR OVC002
     FM181600 08006KT 5SM BR OVC015
     FM181800 09007KT P6SM BKN035=

USA.gov is the U.S. government's official web portal to all federal, state and local government web resources and services.